Portada
METAR-TAF:

METAR-TAF

Aeropuertos :

Turaif, Arabia Saudita

latitud: 31-41N, longitud: 038-44E, altitud: 813 m

Observación

El informe se hizo hace 1 hora y 6 minutos, a las 23:00 UTC
Viento 6 kt del oeste
Temperatura 19°C
Humedad 52%
Presión 1014 hPa
Visibilidad 10 km o más
sin nubes por debajo de 1500 m y sin presencia de cumulonimbus.

METAR: OETR 172300Z 26006KT CAVOK 19/09 Q1014 NOSIG

Hora: 03:06 (00:06 UTC)

Pronóstico

El informe se hizo hace 1 hora y 6 minutos, a las 23:00 UTC
Pronóstico válido del 18 a las 00 UTC al 19 a las 06 UTC
Viento 5 kt del norte
Visibilidad 10 km o más
sin nubes por debajo de 1500 m y sin presencia de cumulonimbus.
Evolucionando progresivamente
del 18 a las 06 UTC al 18 a las 08 UTC
Viento 10 kt del oeste-noroeste
Evolucionando progresivamente
del 18 a las 20 UTC al 18 a las 22 UTC
Viento 6 kt del norte

TAF: OETR 172300Z 1800/1906 36005KT CAVOK BECMG 1806/1808 29010KT BECMG 1820/1822 36006KT

Observaciones y pronósticos meteorológicos de más de 4000 aeropuertos (mensajes METAR y TAF).

Los puntos amarillos y rojos representan las estaciones disponibles.

Ponga el ratón en el punto deseado para ver el nombre de la estación.

Haga clic para ver las observaciones y los pronósticos meteorológicos.

Para cambiar el mapa : haga clic en los botones verdes con una cruz de color negro para hacer un zoom, en el botón verde con un guión para alejar o en las flechas verdes para mapas adyacentes.


METAR-TAF: